map of LPX home
LPX - Airport
Location
City:  Liepaya, Latvia
Name:Liepaya International Airport
ICAO:EVLA
IATA:LPX

Details
Type:Airport (Aerodrome, Airfield)
Use:Public/Civil, International (customs port of entry)
Latitude:5631'03"N (56.517500)
Longitude:2105'49"E (21.096944)
Datum:WGS 1984
Elevation:16 ft (5 m)
Variation:6.78E (WMM2015 magnetic declination)
0.14 annual change
Runways:1
Longest:6568 × 131 ft (2002 × 40 m), paved

Time
Time Zone:UTC+2 (DST+3)
Local Time:

Weather
METAR:EVLA 161450Z AUTO 09009KT 3800 -SN SCT006/// OVC026/// M01/M01 Q1022
TAF:EVLA 161401Z 1615/1715 11010KT 4000 -SN OVC010
TEMPO 1615/1622 14012G25KT 1000 SN BLSN BKN005 OVC010
BECMG 1622/1624 7000 NSW BKN020
TEMPO 1700/1704 BKN010
BECMG 1704/1706 18007KT

Related Locations
Nearby:
Farthest:CHT: 11266 mi / 18131 km
Waitangi [Tuuta], CIT, NZ

Find:

   beyond  
but within

Other Information
Maps:
NOTAMs:
Links:
Sources:

  
  • flag of Latvia
  

Sectional Chart

Flight Planning
at skyvector.com

Satellite Image

Google Maps Satellite view

 

Copyright © 2004-2018 Karl L. Swartz. All rights reserved.
The Great Circle Mapper name and logo are trademarks of the Great Circle Mapper.
All other trademarks mentioned herein belong to their respective owners.
Please see credits for attibutions and further copyright information.

  Follow gcmap on Facebook Follow gcmap on Twitter Follow gcmap on Google+ GCmap on LinkedIn

hCard Microformat

Geo Microformat